createdAt,value
2019-02-18T00:02:18.605Z,116.47
2019-02-18T00:04:47.154Z,114.93
2019-02-18T00:07:15.901Z,115.70
2019-02-18T00:09:44.526Z,113.60
2019-02-18T00:12:13.142Z,117.83
2019-02-18T00:14:41.729Z,113.43
2019-02-18T00:17:10.345Z,116.20
2019-02-18T00:19:39.565Z,116.90
2019-02-18T00:22:08.269Z,116.10
2019-02-18T00:24:36.749Z,115.80
2019-02-18T00:27:05.299Z,117.63
2019-02-18T00:29:33.868Z,114.73
2019-02-18T00:32:02.413Z,113.43
2019-02-18T00:34:30.953Z,112.67
2019-02-18T00:36:59.459Z,108.63
2019-02-18T00:39:28.008Z,113.47
2019-02-18T00:41:56.561Z,115.03
2019-02-18T00:44:25.185Z,114.13
2019-02-18T00:46:53.785Z,114.57
2019-02-18T00:49:22.406Z,112.37
2019-02-18T00:51:50.973Z,110.43
2019-02-18T00:54:19.516Z,105.00
2019-02-18T00:56:47.998Z,110.60
2019-02-18T00:59:16.578Z,108.27
2019-02-18T01:01:45.200Z,108.27
2019-02-18T01:04:13.811Z,110.57
2019-02-18T01:06:42.538Z,112.07
2019-02-18T01:09:11.162Z,106.33
2019-02-18T01:11:39.776Z,110.57
2019-02-18T01:14:08.313Z,110.60
2019-02-18T01:16:36.997Z,106.03
2019-02-18T01:19:05.681Z,108.23
2019-02-18T01:21:34.458Z,108.43
2019-02-18T01:24:03.010Z,107.43
2019-02-18T01:26:31.620Z,109.57
2019-02-18T01:29:00.125Z,114.30
2019-02-18T01:31:28.602Z,117.40
2019-02-18T01:33:57.148Z,114.30
2019-02-18T01:36:25.670Z,107.27
2019-02-18T01:38:54.221Z,111.60
2019-02-18T01:41:22.837Z,108.27
2019-02-18T01:43:51.473Z,103.43
2019-02-18T01:46:20.165Z,102.80
2019-02-18T01:48:48.710Z,103.70
2019-02-18T01:51:17.282Z,104.27
2019-02-18T01:53:45.757Z,100.57
2019-02-18T01:56:14.301Z,99.27
2019-02-18T01:58:42.804Z,98.50
2019-02-18T02:01:11.409Z,98.60
2019-02-18T02:03:40.005Z,97.90
2019-02-18T02:06:08.582Z,101.83
2019-02-18T02:08:37.202Z,97.33
2019-02-18T02:11:05.878Z,96.00
2019-02-18T02:13:35.917Z,98.57
2019-02-18T02:16:06.144Z,102.30
2019-02-18T02:18:34.681Z,99.20
2019-02-18T02:21:03.488Z,100.77
2019-02-18T02:23:31.964Z,103.33
2019-02-18T02:26:00.509Z,98.87
2019-02-18T02:28:29.246Z,101.53
2019-02-18T02:31:00.643Z,100.17
2019-02-18T02:33:28.058Z,102.00
2019-02-18T02:35:56.658Z,103.33
2019-02-18T02:38:25.206Z,104.40
2019-02-18T02:40:53.822Z,105.27
2019-02-18T02:43:22.563Z,114.03
2019-02-18T02:45:51.110Z,112.80
2019-02-18T02:48:19.590Z,111.87
2019-02-18T02:50:48.152Z,109.73
2019-02-18T02:53:16.626Z,113.17
2019-02-18T02:55:45.249Z,115.20
2019-02-18T02:58:13.818Z,112.57
2019-02-18T03:00:42.360Z,112.93
2019-02-18T03:03:11.515Z,116.87
2019-02-18T03:05:40.099Z,114.17
2019-02-18T03:08:19.815Z,113.33
2019-02-18T03:10:38.841Z,113.77
2019-02-18T03:13:07.348Z,109.23
2019-02-18T03:15:35.889Z,113.33
2019-02-18T03:18:04.430Z,129.17
2019-02-18T03:20:33.003Z,131.17
2019-02-18T03:23:01.688Z,122.33
2019-02-18T03:25:31.673Z,119.37
2019-02-18T03:28:09.292Z,118.53
2019-02-18T03:30:46.940Z,114.03
2019-02-18T03:33:33.502Z,110.17
2019-02-18T03:36:02.055Z,108.20
2019-02-18T03:38:31.924Z,108.70
2019-02-18T03:41:03.395Z,110.23
2019-02-18T03:43:31.008Z,112.70
2019-02-18T03:45:59.485Z,111.83
2019-02-18T03:48:28.131Z,112.40
2019-02-18T03:50:57.661Z,112.63
2019-02-18T03:53:26.296Z,113.43
2019-02-18T03:55:54.978Z,112.47
2019-02-18T03:58:23.629Z,107.87
2019-02-18T04:00:52.172Z,109.43
2019-02-18T04:03:20.898Z,112.27
2019-02-18T04:05:49.437Z,112.00
2019-02-18T04:08:17.912Z,112.13
2019-02-18T04:10:46.420Z,114.33
2019-02-18T04:13:15.038Z,112.67
2019-02-18T04:15:43.590Z,109.90
2019-02-18T04:18:12.175Z,102.60
2019-02-18T04:20:40.716Z,125.07
2019-02-18T04:23:09.261Z,155.77
2019-02-18T04:25:37.973Z,170.40
2019-02-18T04:28:06.445Z,146.97
2019-02-18T04:30:34.922Z,142.57
2019-02-18T04:33:03.529Z,138.13
2019-02-18T04:35:32.083Z,126.37
2019-02-18T04:38:00.563Z,116.53
2019-02-18T04:40:29.133Z,108.90
2019-02-18T04:42:57.719Z,106.30
2019-02-18T04:45:26.233Z,97.57
2019-02-18T04:47:54.741Z,100.67
2019-02-18T04:50:23.289Z,102.03
2019-02-18T04:52:51.828Z,106.57
2019-02-18T04:55:20.413Z,99.63
2019-02-18T04:57:48.963Z,99.83
2019-02-18T05:00:17.589Z,105.43
2019-02-18T05:02:46.093Z,111.93
2019-02-18T05:05:16.625Z,113.60
2019-02-18T05:07:45.190Z,114.93
2019-02-18T05:10:15.168Z,107.17
2019-02-18T05:12:43.647Z,121.40
2019-02-18T05:15:12.269Z,125.17
2019-02-18T05:17:40.776Z,137.33
2019-02-18T05:20:09.575Z,124.97
2019-02-18T05:22:38.128Z,120.57
2019-02-18T05:25:07.973Z,121.33
2019-02-18T05:27:36.522Z,127.40
2019-02-18T05:30:08.042Z,150.20
2019-02-18T05:32:36.629Z,128.07
2019-02-18T05:35:06.541Z,122.50
2019-02-18T05:37:35.146Z,110.10
2019-02-18T05:40:04.462Z,112.80
2019-02-18T05:42:33.017Z,110.63
2019-02-18T05:45:01.576Z,108.67
2019-02-18T05:47:30.289Z,109.60
2019-02-18T05:49:58.851Z,113.57
2019-02-18T05:52:27.403Z,115.53
2019-02-18T05:54:56.241Z,117.70
2019-02-18T05:57:24.870Z,119.13
2019-02-18T05:59:53.421Z,113.30
2019-02-18T06:02:22.444Z,117.97
2019-02-18T06:04:50.987Z,124.70
2019-02-18T06:07:19.641Z,129.50
2019-02-18T06:09:48.253Z,148.97
2019-02-18T06:12:16.809Z,156.87
2019-02-18T06:14:45.356Z,148.07
2019-02-18T06:17:13.941Z,146.07
2019-02-18T06:19:42.501Z,144.83
2019-02-18T06:22:11.054Z,145.70
2019-02-18T06:24:39.707Z,150.33
2019-02-18T06:27:08.275Z,156.07
2019-02-18T06:29:36.829Z,144.63
2019-02-18T06:32:05.475Z,155.97
2019-02-18T06:34:34.029Z,169.10
2019-02-18T06:37:02.582Z,153.73
2019-02-18T06:39:40.614Z,147.47
2019-02-18T06:42:01.381Z,144.87
2019-02-18T06:44:31.564Z,139.37
2019-02-18T06:47:01.791Z,142.13
2019-02-18T06:49:30.341Z,164.00
2019-02-18T06:51:58.816Z,172.93
2019-02-18T06:54:27.402Z,155.17
2019-02-18T06:57:03.165Z,159.20
2019-02-18T06:59:33.382Z,149.63
2019-02-18T07:02:18.477Z,145.10
2019-02-18T07:04:51.563Z,139.77
2019-02-18T07:07:24.506Z,141.87
2019-02-18T07:09:54.728Z,138.60
2019-02-18T07:12:24.917Z,142.93
2019-02-18T07:14:53.461Z,145.70
2019-02-18T07:17:21.981Z,148.60
2019-02-18T07:19:50.603Z,141.13
2019-02-18T07:22:19.169Z,144.80
2019-02-18T07:24:47.729Z,143.50
2019-02-18T07:27:16.209Z,139.23
2019-02-18T07:29:44.750Z,137.27
2019-02-18T07:32:13.245Z,133.00
2019-02-18T07:34:41.729Z,130.57
2019-02-18T07:37:10.344Z,133.20
2019-02-18T07:39:38.857Z,126.37
2019-02-18T07:42:07.398Z,124.57
2019-02-18T07:44:35.949Z,122.30
2019-02-18T07:47:04.520Z,122.27
2019-02-18T07:49:33.065Z,119.37
2019-02-18T07:52:01.626Z,119.33
2019-02-18T07:54:30.190Z,118.17
2019-02-18T07:56:58.809Z,118.77
2019-02-18T07:59:27.283Z,118.60
2019-02-18T08:01:55.934Z,115.33
2019-02-18T08:04:24.556Z,108.57
2019-02-18T08:06:53.100Z,108.90
2019-02-18T08:09:21.600Z,106.50
2019-02-18T08:11:50.223Z,102.13
2019-02-18T08:14:18.770Z,106.03
2019-02-18T08:16:47.340Z,105.40
2019-02-18T08:19:15.847Z,102.70
2019-02-18T08:21:44.438Z,104.10
2019-02-18T08:24:12.950Z,108.83
2019-02-18T08:26:44.018Z,102.73
2019-02-18T08:29:11.826Z,104.80
2019-02-18T08:31:40.329Z,109.83
2019-02-18T08:34:08.952Z,103.73
2019-02-18T08:36:37.498Z,103.73
2019-02-18T08:39:06.645Z,101.57
2019-02-18T08:41:35.187Z,99.60
2019-02-18T08:44:03.653Z,90.90
2019-02-18T08:46:32.155Z,90.40
2019-02-18T08:49:00.705Z,92.40
2019-02-18T08:51:29.170Z,90.87
2019-02-18T08:53:57.665Z,87.43
2019-02-18T08:56:26.137Z,85.57
2019-02-18T08:58:54.609Z,85.63
2019-02-18T09:01:23.189Z,84.87
2019-02-18T09:03:51.662Z,86.80
2019-02-18T09:06:20.201Z,80.60
2019-02-18T09:08:48.697Z,83.83
2019-02-18T09:11:17.165Z,81.73
2019-02-18T09:13:45.638Z,74.47
2019-02-18T09:16:14.224Z,73.63
2019-02-18T09:18:42.784Z,74.67
2019-02-18T09:21:11.340Z,70.87
2019-02-18T09:23:53.394Z,73.70
2019-02-18T09:26:21.870Z,71.93
2019-02-18T09:28:50.482Z,69.13
2019-02-18T09:31:20.626Z,73.37
2019-02-18T09:33:49.098Z,71.13
2019-02-18T09:36:17.637Z,68.73
2019-02-18T09:38:46.141Z,68.40
2019-02-18T09:41:14.687Z,66.93
2019-02-18T09:43:43.233Z,69.37
2019-02-18T09:46:11.877Z,68.80
2019-02-18T09:48:40.421Z,66.90
2019-02-18T09:51:08.890Z,68.10
2019-02-18T09:53:37.465Z,64.03
2019-02-18T09:56:06.069Z,60.23
2019-02-18T09:58:34.551Z,59.83
2019-02-18T10:01:03.192Z,64.20
2019-02-18T10:03:32.442Z,61.97
2019-02-18T10:06:00.966Z,56.73
2019-02-18T10:08:29.474Z,58.60
2019-02-18T10:10:59.590Z,64.87
2019-02-18T10:13:28.129Z,62.73
2019-02-18T10:15:56.698Z,59.83
2019-02-18T10:18:25.169Z,54.37
2019-02-18T10:20:53.718Z,54.90
2019-02-18T10:23:22.329Z,55.33
2019-02-18T10:25:51.012Z,50.37
2019-02-18T10:28:19.554Z,48.40
2019-02-18T10:30:48.273Z,45.73
2019-02-18T10:33:16.889Z,48.83
2019-02-18T10:35:45.517Z,44.50
2019-02-18T10:38:14.086Z,45.10
2019-02-18T10:40:42.569Z,44.90
2019-02-18T10:43:11.111Z,45.37
2019-02-18T10:45:39.741Z,43.57
2019-02-18T10:48:08.286Z,45.80
2019-02-18T10:50:36.829Z,49.30
2019-02-18T10:53:05.477Z,45.60
2019-02-18T10:55:34.093Z,46.33
2019-02-18T10:58:02.641Z,44.80
2019-02-18T11:00:31.274Z,49.40
2019-02-18T11:02:59.864Z,49.27
2019-02-18T11:05:28.482Z,46.87
2019-02-18T11:07:57.362Z,49.33
2019-02-18T11:10:25.912Z,48.50
2019-02-18T11:13:00.442Z,45.90
2019-02-18T11:15:29.229Z,44.73
2019-02-18T11:17:57.784Z,44.97
2019-02-18T11:20:26.335Z,44.27
2019-02-18T11:22:54.910Z,42.00
2019-02-18T11:25:23.453Z,43.03
2019-02-18T11:27:52.074Z,39.23
2019-02-18T11:30:20.889Z,40.50
2019-02-18T11:32:49.441Z,39.83
2019-02-18T11:35:17.989Z,39.40
2019-02-18T11:37:46.566Z,42.57
2019-02-18T11:40:17.278Z,41.17
2019-02-18T11:42:45.774Z,40.40
2019-02-18T11:45:17.420Z,37.83
2019-02-18T11:47:45.974Z,38.47
2019-02-18T11:50:15.362Z,36.90
2019-02-18T11:52:44.089Z,38.40
2019-02-18T11:55:13.578Z,41.83
2019-02-18T11:57:42.569Z,43.63
2019-02-18T12:00:15.477Z,40.17
2019-02-18T12:02:44.089Z,39.63
2019-02-18T12:05:13.072Z,41.03
2019-02-18T12:07:41.714Z,38.60
2019-02-18T12:10:13.851Z,40.47
2019-02-18T12:12:42.756Z,40.27
2019-02-18T12:15:13.315Z,41.13
2019-02-18T12:17:41.952Z,41.40
2019-02-18T12:20:14.485Z,42.93
2019-02-18T12:22:43.174Z,40.93
2019-02-18T12:25:12.834Z,43.03
2019-02-18T12:27:41.801Z,43.23
2019-02-18T12:30:17.198Z,43.33
2019-02-18T12:32:45.917Z,45.33
2019-02-18T12:35:14.532Z,44.73
2019-02-18T12:37:43.147Z,45.50
2019-02-18T12:40:13.263Z,45.10
2019-02-18T12:42:42.567Z,46.97
2019-02-18T12:45:13.099Z,44.63
2019-02-18T12:47:41.898Z,43.60
2019-02-18T12:50:11.692Z,43.43
2019-02-18T12:52:40.477Z,43.63
2019-02-18T12:55:10.357Z,44.60
2019-02-18T12:57:39.278Z,43.60
2019-02-18T13:00:13.858Z,44.07
2019-02-18T13:02:44.732Z,44.27
2019-02-18T13:05:13.713Z,44.27
2019-02-18T13:07:42.426Z,45.00
2019-02-18T13:10:11.720Z,45.47
2019-02-18T13:12:40.636Z,47.43
2019-02-18T13:15:14.609Z,44.67
2019-02-18T13:17:44.794Z,45.37
2019-02-18T13:20:13.417Z,45.70
2019-02-18T13:22:42.103Z,43.87
2019-02-18T13:25:11.021Z,44.60
2019-02-18T13:27:39.572Z,42.67
2019-02-18T13:30:17.453Z,42.13
2019-02-18T13:32:46.128Z,40.37
2019-02-18T13:35:14.816Z,37.97
2019-02-18T13:37:43.389Z,37.53
2019-02-18T13:40:14.944Z,38.80
2019-02-18T13:42:43.888Z,38.23
2019-02-18T13:45:12.614Z,37.40
2019-02-18T13:47:41.158Z,39.27
2019-02-18T13:50:11.344Z,41.17
2019-02-18T13:52:40.066Z,40.70
2019-02-18T13:55:10.449Z,42.03
2019-02-18T13:57:39.368Z,42.00
2019-02-18T14:00:12.610Z,44.10
2019-02-18T14:02:41.193Z,45.57
2019-02-18T14:05:09.853Z,44.17
2019-02-18T14:07:38.462Z,42.40
2019-02-18T14:10:07.646Z,43.93
2019-02-18T14:12:36.567Z,45.37
2019-02-18T14:15:07.148Z,43.67
2019-02-18T14:17:35.769Z,45.23
2019-02-18T14:20:10.074Z,44.70
2019-02-18T14:22:38.791Z,43.87
2019-02-18T14:25:09.180Z,43.90
2019-02-18T14:27:37.869Z,44.07
2019-02-18T14:30:12.701Z,42.47
2019-02-18T14:32:41.318Z,43.43
2019-02-18T14:35:10.409Z,43.03
2019-02-18T14:37:39.132Z,42.57
2019-02-18T14:40:09.488Z,44.53
2019-02-18T14:42:38.173Z,46.37
2019-02-18T14:45:07.238Z,45.63
2019-02-18T14:47:35.788Z,46.63
2019-02-18T14:50:06.318Z,44.37
2019-02-18T14:52:35.005Z,44.43
2019-02-18T14:55:04.582Z,46.43
2019-02-18T14:57:33.593Z,45.43
2019-02-18T15:00:02.614Z,47.93
2019-02-18T15:02:31.238Z,47.37
2019-02-18T15:04:59.845Z,51.50
2019-02-18T15:07:28.492Z,51.87
2019-02-18T15:09:57.247Z,49.70
2019-02-18T15:12:32.904Z,50.60
2019-02-18T15:14:56.153Z,49.47
2019-02-18T15:17:24.704Z,47.80
2019-02-18T15:19:53.249Z,50.00
2019-02-18T15:22:21.821Z,48.97
2019-02-18T15:24:50.568Z,47.87
2019-02-18T15:27:19.181Z,49.57
2019-02-18T15:29:47.904Z,50.17
2019-02-18T15:32:16.588Z,46.90
2019-02-18T15:34:45.216Z,45.83
2019-02-18T15:37:14.031Z,46.80
2019-02-18T15:39:42.653Z,46.97
2019-02-18T15:42:11.462Z,49.10
2019-02-18T15:44:40.249Z,52.20
2019-02-18T15:47:08.797Z,56.33
2019-02-18T15:49:37.409Z,58.53
2019-02-18T15:52:06.293Z,59.80
2019-02-18T15:54:34.982Z,64.17
2019-02-18T15:57:04.267Z,65.13
2019-02-18T15:59:32.921Z,69.67
2019-02-18T16:02:01.539Z,69.90
2019-02-18T16:04:30.159Z,82.50
2019-02-18T16:06:58.741Z,86.93
2019-02-18T16:09:27.545Z,81.50
2019-02-18T16:11:56.397Z,74.60
2019-02-18T16:14:24.987Z,80.63
2019-02-18T16:16:53.530Z,97.07
2019-02-18T16:19:22.160Z,107.23
2019-02-18T16:21:50.813Z,109.37
2019-02-18T16:24:20.091Z,106.00
2019-02-18T16:26:48.823Z,98.17
2019-02-18T16:29:17.691Z,99.50
2019-02-18T16:31:46.377Z,99.23
2019-02-18T16:34:14.942Z,104.50
2019-02-18T16:36:43.590Z,108.00
2019-02-18T16:39:12.390Z,108.63
2019-02-18T16:41:41.002Z,101.00
2019-02-18T16:44:09.590Z,99.17
2019-02-18T16:46:38.211Z,96.73
2019-02-18T16:49:07.131Z,103.63
2019-02-18T16:51:35.732Z,117.10
2019-02-18T16:54:04.420Z,120.10
2019-02-18T16:56:33.236Z,116.40
2019-02-18T16:59:02.198Z,113.07
2019-02-18T17:01:30.813Z,102.83
2019-02-18T17:03:59.365Z,94.03
2019-02-18T17:06:27.975Z,94.37
2019-02-18T17:08:56.588Z,91.60
2019-02-18T17:11:25.137Z,99.70
2019-02-18T17:13:54.001Z,100.13
2019-02-18T17:16:22.637Z,96.30
2019-02-18T17:18:51.191Z,97.57
2019-02-18T17:21:19.841Z,102.20
2019-02-18T17:23:48.400Z,107.57
2019-02-18T17:26:16.972Z,109.27
2019-02-18T17:28:45.560Z,107.93
2019-02-18T17:31:14.486Z,107.07
2019-02-18T17:33:43.039Z,107.80
2019-02-18T17:36:11.698Z,108.27
2019-02-18T17:38:40.246Z,101.40
2019-02-18T17:41:08.873Z,103.80
2019-02-18T17:43:37.522Z,116.33
2019-02-18T17:46:06.142Z,109.23
2019-02-18T17:48:34.761Z,116.90
2019-02-18T17:51:03.474Z,122.03
2019-02-18T17:53:32.093Z,122.00
2019-02-18T17:56:00.721Z,138.23
2019-02-18T17:58:29.294Z,135.27
2019-02-18T18:00:58.993Z,143.97
2019-02-18T18:03:27.789Z,174.83
2019-02-18T18:05:56.431Z,168.80
2019-02-18T18:08:24.994Z,170.70
2019-02-18T18:10:53.541Z,301.60
2019-02-18T18:13:25.126Z,223.60
2019-02-18T18:15:52.329Z,218.03
2019-02-18T18:18:20.977Z,222.30
2019-02-18T18:20:49.560Z,199.43
2019-02-18T18:23:18.124Z,189.70
2019-02-18T18:25:46.682Z,200.30
2019-02-18T18:28:15.298Z,199.30
2019-02-18T18:30:43.917Z,220.13
2019-02-18T18:33:12.468Z,225.50
2019-02-18T18:35:41.071Z,252.00
2019-02-18T18:38:09.621Z,247.53
2019-02-18T18:40:38.237Z,250.30
2019-02-18T18:43:06.941Z,244.87
2019-02-18T18:45:35.556Z,331.57
2019-02-18T18:48:04.241Z,363.33
2019-02-18T18:50:32.841Z,327.73
2019-02-18T18:53:02.928Z,298.33
2019-02-18T18:55:31.735Z,293.30
2019-02-18T18:58:01.271Z,261.93
2019-02-18T19:00:29.962Z,252.23
2019-02-18T19:02:58.512Z,256.03
2019-02-18T19:05:27.239Z,260.83
2019-02-18T19:07:55.792Z,261.07
2019-02-18T19:10:24.341Z,287.50
2019-02-18T19:12:52.918Z,334.03
2019-02-18T19:15:21.478Z,317.07
2019-02-18T19:17:50.030Z,300.50
2019-02-18T19:20:18.760Z,282.17
2019-02-18T19:22:47.367Z,272.07
2019-02-18T19:25:15.908Z,246.87
2019-02-18T19:27:44.566Z,242.10
2019-02-18T19:30:19.237Z,246.70
2019-02-18T19:32:48.093Z,231.30
2019-02-18T19:35:16.667Z,230.30
2019-02-18T19:37:45.289Z,219.83
2019-02-18T19:40:14.678Z,216.90
2019-02-18T19:42:43.260Z,218.13
2019-02-18T19:45:17.153Z,200.23
2019-02-18T19:47:45.846Z,205.10
2019-02-18T19:50:14.501Z,222.43
2019-02-18T19:52:44.826Z,212.43
2019-02-18T19:55:13.709Z,210.00
2019-02-18T19:57:42.292Z,217.23
2019-02-18T20:00:18.381Z,257.83
2019-02-18T20:02:47.099Z,271.93
2019-02-18T20:05:15.786Z,241.30
2019-02-18T20:07:44.437Z,206.57
2019-02-18T20:10:13.558Z,151.80
2019-02-18T20:12:42.108Z,129.50
2019-02-18T20:15:17.199Z,121.37
2019-02-18T20:17:45.809Z,126.67
2019-02-18T20:20:15.598Z,135.90
2019-02-18T20:22:44.358Z,151.57
2019-02-18T20:25:13.145Z,142.87
2019-02-18T20:27:41.775Z,134.20
2019-02-18T20:30:12.493Z,132.33
2019-02-18T20:32:41.124Z,142.00
2019-02-18T20:35:10.806Z,136.67
2019-02-18T20:37:39.459Z,135.73
2019-02-18T20:40:09.954Z,135.03
2019-02-18T20:42:40.420Z,154.07
2019-02-18T20:45:12.421Z,137.40
2019-02-18T20:47:41.110Z,150.03
2019-02-18T20:50:11.771Z,138.70
2019-02-18T20:52:40.493Z,130.80
2019-02-18T20:55:15.740Z,126.40
2019-02-18T20:57:44.429Z,126.93
2019-02-18T21:00:20.502Z,132.73
2019-02-18T21:02:49.290Z,129.37
2019-02-18T21:05:17.852Z,127.07
2019-02-18T21:07:46.530Z,131.17
2019-02-18T21:10:17.221Z,138.13
2019-02-18T21:12:45.946Z,143.27
2019-02-18T21:15:14.665Z,145.57
2019-02-18T21:17:43.354Z,144.27
2019-02-18T21:20:13.241Z,148.43
2019-02-18T21:22:41.961Z,155.03
2019-02-18T21:25:11.154Z,149.83
2019-02-18T21:27:39.840Z,148.03
2019-02-18T21:30:16.471Z,143.83
2019-02-18T21:32:45.017Z,160.77
2019-02-18T21:35:13.709Z,319.30
2019-02-18T21:37:42.651Z,279.33
2019-02-18T21:40:12.253Z,194.30
2019-02-18T21:42:40.925Z,201.57
2019-02-18T21:45:12.106Z,166.43
2019-02-18T21:47:40.657Z,169.87
2019-02-18T21:50:10.445Z,145.93
2019-02-18T21:52:39.488Z,123.73
2019-02-18T21:55:12.313Z,122.17
2019-02-18T21:57:40.933Z,120.23
2019-02-18T22:00:14.231Z,120.93
2019-02-18T22:02:42.845Z,115.37
2019-02-18T22:05:11.537Z,116.13
2019-02-18T22:07:40.183Z,114.27
2019-02-18T22:10:09.472Z,107.33
2019-02-18T22:12:38.099Z,111.73
2019-02-18T22:15:08.612Z,117.63
2019-02-18T22:17:37.497Z,110.17
2019-02-18T22:20:08.885Z,109.63
2019-02-18T22:22:37.713Z,118.73
2019-02-18T22:25:08.900Z,120.40
2019-02-18T22:27:37.525Z,120.13
2019-02-18T22:30:09.073Z,117.83
2019-02-18T22:32:37.761Z,121.57
2019-02-18T22:35:07.154Z,118.30
2019-02-18T22:37:36.100Z,126.67
2019-02-18T22:40:07.289Z,161.87
2019-02-18T22:42:35.908Z,162.30
2019-02-18T22:45:05.418Z,178.67
2019-02-18T22:47:33.969Z,259.17
2019-02-18T22:50:02.595Z,247.47
2019-02-18T22:52:31.549Z,250.67
2019-02-18T22:55:00.224Z,183.37
2019-02-18T22:57:28.837Z,230.43
2019-02-18T22:59:57.421Z,295.73
2019-02-18T23:02:26.109Z,296.53
2019-02-18T23:04:54.737Z,260.37
2019-02-18T23:07:23.473Z,307.07
2019-02-18T23:09:52.381Z,276.83
2019-02-18T23:12:20.877Z,367.37
2019-02-18T23:14:50.687Z,246.83
2019-02-18T23:17:19.265Z,332.13
2019-02-18T23:19:47.817Z,332.80
2019-02-18T23:22:16.408Z,168.07
2019-02-18T23:24:44.956Z,134.87
2019-02-18T23:27:13.580Z,129.87
2019-02-18T23:29:42.173Z,274.93
2019-02-18T23:32:12.142Z,252.27
2019-02-18T23:34:40.760Z,247.63
2019-02-18T23:37:09.410Z,309.43
2019-02-18T23:39:37.885Z,320.80
2019-02-18T23:42:06.433Z,252.93
2019-02-18T23:44:34.941Z,297.33
2019-02-18T23:47:03.480Z,235.87
2019-02-18T23:49:31.957Z,252.27
2019-02-18T23:52:00.485Z,286.97
2019-02-18T23:54:28.962Z,251.43
2019-02-18T23:56:57.513Z,174.97
2019-02-18T23:59:26.153Z,184.37
